Terminal Aerodrome Forecast
Issued by NWS Albany, NY

Home | Current Version | Previous Version | Text Only | Print | Product List | Glossary On
Versions: 1 2 3 4 5 6 7 8 9 10 11 12 13 14 15 16 17 18
000
FTUS41 KALY 282100 AAB
TAFPOU
TAF AMD
KPOU 282105Z 2821/2918 23008KT P6SM FEW040 SCT110
      TEMPO 2822/2824 5SM -RA BR OVC030
     FM290000 26010KT P6SM SCT050
     FM290900 VRB04KT 2SM BR SCT050
     FM291300 29005KT P6SM SCT040=

USA.gov is the U.S. government's official web portal to all federal, state and local government web resources and services.